Pagrindinis puslapis
METAR-TAF:

METAR-TAF

Oro uostai :

Aupaluk, Kvebekas, Kanada

platuma: 59-17-48N, ilguma: 069-35-59W, Aukštis: 35 m

Dabartinis oras

Ataskaita buvo paskelbta 8 valandos ir 35 minutes, ne 20:00 UTC
Vėjas 8 kt iš Vakarų/Pietvakarių
Temperatūra -23°C
Drėgmė 63%
Slėgis 1029 hPa
Matomumas: 24.1 km
Mažai debesys ne aukštis 900 ft
Mažai debesys ne aukštis 7500 ft

METAR: CYLA 272000Z 25008KT 15SM FEW009 FEW075 M23/M28 A3039 RMK SF1AS1 SF TR AS TR SNW CVR/HARD PACK LAST STFD OBS/NXT 281300Z SLP299

Laikas: 23:35 (04:35 UTC)


TAF: trūkstamas

Orai ataskaitas ir orų prognozės (METAR, TAF).

turimą stotys yra geltonos ir raudonos taškus žemėlapyje.

Perkelti pele per norėdami pamatyti stoties vardą.

Tada spustelėkite, norėdami matyti oro stebėjimo ir prognozės.

Norėdami pakeisti žemėlapį: spustelėkite ant žalios mygtukų su juodo kryžiaus žemyn,; žalią mygtuką su brūkšneliu, jei norite nutolinti; arba žalių rodyklių gretimoms žemėlapius.


METAR-TAF: